sensor_id;sensor_type;location;lat;lon;timestamp;temperature;humidity
9116;DHT22;4593;53.652;10.168;2023-05-01T00:00:01;5.90;82.70
9116;DHT22;4593;53.652;10.168;2023-05-01T00:02:29;5.90;82.60
9116;DHT22;4593;53.652;10.168;2023-05-01T00:04:55;5.90;82.30
9116;DHT22;4593;53.652;10.168;2023-05-01T00:07:21;5.90;82.30
9116;DHT22;4593;53.652;10.168;2023-05-01T00:09:47;6.00;82.00
9116;DHT22;4593;53.652;10.168;2023-05-01T00:12:13;6.00;81.90
9116;DHT22;4593;53.652;10.168;2023-05-01T00:14:38;5.90;81.90
9116;DHT22;4593;53.652;10.168;2023-05-01T00:17:04;5.90;81.80
9116;DHT22;4593;53.652;10.168;2023-05-01T00:19:30;5.90;81.90
9116;DHT22;4593;53.652;10.168;2023-05-01T00:21:57;5.80;82.00
9116;DHT22;4593;53.652;10.168;2023-05-01T00:24:22;5.80;82.50
9116;DHT22;4593;53.652;10.168;2023-05-01T00:26:48;5.80;82.10
9116;DHT22;4593;53.652;10.168;2023-05-01T00:29:14;5.70;82.30
9116;DHT22;4593;53.652;10.168;2023-05-01T00:31:41;5.70;82.20
9116;DHT22;4593;53.652;10.168;2023-05-01T00:34:07;5.60;82.30
9116;DHT22;4593;53.652;10.168;2023-05-01T00:36:33;5.60;82.40
9116;DHT22;4593;53.652;10.168;2023-05-01T00:38:59;5.60;82.80
9116;DHT22;4593;53.652;10.168;2023-05-01T00:41:24;5.60;82.70
9116;DHT22;4593;53.652;10.168;2023-05-01T00:43:50;5.60;82.60
9116;DHT22;4593;53.652;10.168;2023-05-01T00:46:16;5.60;82.80
9116;DHT22;4593;53.652;10.168;2023-05-01T00:48:42;5.50;82.70
9116;DHT22;4593;53.652;10.168;2023-05-01T00:51:09;5.50;83.00
9116;DHT22;4593;53.652;10.168;2023-05-01T00:53:35;5.50;82.90
9116;DHT22;4593;53.652;10.168;2023-05-01T00:56:01;5.50;82.90
9116;DHT22;4593;53.652;10.168;2023-05-01T00:58:28;5.50;82.60
9116;DHT22;4593;53.652;10.168;2023-05-01T01:00:54;5.50;82.80
9116;DHT22;4593;53.652;10.168;2023-05-01T01:03:20;5.50;82.60
9116;DHT22;4593;53.652;10.168;2023-05-01T01:05:52;5.50;82.90
9116;DHT22;4593;53.652;10.168;2023-05-01T01:08:25;5.40;82.90
9116;DHT22;4593;53.652;10.168;2023-05-01T01:11:37;5.40;83.30
9116;DHT22;4593;53.652;10.168;2023-05-01T01:13:57;5.40;83.20
9116;DHT22;4593;53.652;10.168;2023-05-01T01:16:47;5.40;83.30
9116;DHT22;4593;53.652;10.168;2023-05-01T01:22:26;5.30;83.20
9116;DHT22;4593;53.652;10.168;2023-05-01T01:35:36;5.20;84.70
9116;DHT22;4593;53.652;10.168;2023-05-01T01:38:08;5.10;84.80
9116;DHT22;4593;53.652;10.168;2023-05-01T01:40:38;5.10;85.10
9116;DHT22;4593;53.652;10.168;2023-05-01T01:43:11;5.00;84.80
9116;DHT22;4593;53.652;10.168;2023-05-01T01:45:45;5.00;84.90
9116;DHT22;4593;53.652;10.168;2023-05-01T01:48:21;5.00;85.10
9116;DHT22;4593;53.652;10.168;2023-05-01T01:50:49;5.00;85.10
9116;DHT22;4593;53.652;10.168;2023-05-01T01:53:17;5.00;84.90
9116;DHT22;4593;53.652;10.168;2023-05-01T01:55:44;4.90;85.00
9116;DHT22;4593;53.652;10.168;2023-05-01T01:58:12;4.90;84.90
9116;DHT22;4593;53.652;10.168;2023-05-01T02:00:42;4.90;85.10
9116;DHT22;4593;53.652;10.168;2023-05-01T02:03:09;4.90;84.90
9116;DHT22;4593;53.652;10.168;2023-05-01T02:05:36;4.90;84.90
9116;DHT22;4593;53.652;10.168;2023-05-01T02:08:04;4.90;84.80
9116;DHT22;4593;53.652;10.168;2023-05-01T02:10:31;4.90;84.80
9116;DHT22;4593;53.652;10.168;2023-05-01T02:12:58;4.90;85.10
9116;DHT22;4593;53.652;10.168;2023-05-01T02:15:25;4.90;84.90
9116;DHT22;4593;53.652;10.168;2023-05-01T02:17:52;4.90;84.90
9116;DHT22;4593;53.652;10.168;2023-05-01T02:20:19;4.90;84.90
9116;DHT22;4593;53.652;10.168;2023-05-01T02:22:46;4.90;85.10
9116;DHT22;4593;53.652;10.168;2023-05-01T02:25:13;4.80;85.10
9116;DHT22;4593;53.652;10.168;2023-05-01T02:27:55;4.80;85.40
9116;DHT22;4593;53.652;10.168;2023-05-01T02:30:22;4.80;85.40
9116;DHT22;4593;53.652;10.168;2023-05-01T02:32:47;4.70;85.50
9116;DHT22;4593;53.652;10.168;2023-05-01T02:35:13;4.70;85.60
9116;DHT22;4593;53.652;10.168;2023-05-01T02:37:39;4.60;85.50
9116;DHT22;4593;53.652;10.168;2023-05-01T02:40:06;4.60;85.80
9116;DHT22;4593;53.652;10.168;2023-05-01T02:42:32;4.60;86.10
9116;DHT22;4593;53.652;10.168;2023-05-01T02:45:02;4.60;86.50
9116;DHT22;4593;53.652;10.168;2023-05-01T02:47:32;4.60;86.70
9116;DHT22;4593;53.652;10.168;2023-05-01T02:49:59;4.60;86.60
9116;DHT22;4593;53.652;10.168;2023-05-01T02:52:26;4.60;86.80
9116;DHT22;4593;53.652;10.168;2023-05-01T02:54:52;4.60;86.80
9116;DHT22;4593;53.652;10.168;2023-05-01T02:57:17;4.50;86.80
9116;DHT22;4593;53.652;10.168;2023-05-01T02:59:44;4.50;87.10
9116;DHT22;4593;53.652;10.168;2023-05-01T03:02:10;4.50;87.30
9116;DHT22;4593;53.652;10.168;2023-05-01T03:04:36;4.40;87.40
9116;DHT22;4593;53.652;10.168;2023-05-01T03:07:02;4.40;87.60
9116;DHT22;4593;53.652;10.168;2023-05-01T03:09:29;4.40;87.50
9116;DHT22;4593;53.652;10.168;2023-05-01T03:11:56;4.40;87.30
9116;DHT22;4593;53.652;10.168;2023-05-01T03:14:21;4.40;87.30
9116;DHT22;4593;53.652;10.168;2023-05-01T03:16:48;4.40;87.40
9116;DHT22;4593;53.652;10.168;2023-05-01T03:19:13;4.30;87.40
9116;DHT22;4593;53.652;10.168;2023-05-01T03:21:39;4.40;87.70
9116;DHT22;4593;53.652;10.168;2023-05-01T03:24:05;4.40;87.50
9116;DHT22;4593;53.652;10.168;2023-05-01T03:26:30;4.40;87.20
9116;DHT22;4593;53.652;10.168;2023-05-01T03:28:57;4.40;87.10
9116;DHT22;4593;53.652;10.168;2023-05-01T03:31:23;4.40;87.10
9116;DHT22;4593;53.652;10.168;2023-05-01T03:33:48;4.40;87.10
9116;DHT22;4593;53.652;10.168;2023-05-01T03:36:14;4.40;87.20
9116;DHT22;4593;53.652;10.168;2023-05-01T03:38:41;4.40;87.10
9116;DHT22;4593;53.652;10.168;2023-05-01T03:41:07;4.40;87.20
9116;DHT22;4593;53.652;10.168;2023-05-01T03:43:32;4.40;87.30
9116;DHT22;4593;53.652;10.168;2023-05-01T03:45:58;4.40;87.20
9116;DHT22;4593;53.652;10.168;2023-05-01T03:48:24;4.40;87.20
9116;DHT22;4593;53.652;10.168;2023-05-01T03:50:52;4.40;87.30
9116;DHT22;4593;53.652;10.168;2023-05-01T03:53:18;4.40;87.30
9116;DHT22;4593;53.652;10.168;2023-05-01T03:55:44;4.50;87.10
9116;DHT22;4593;53.652;10.168;2023-05-01T03:58:10;4.50;87.20
9116;DHT22;4593;53.652;10.168;2023-05-01T04:00:36;4.50;87.10
9116;DHT22;4593;53.652;10.168;2023-05-01T04:03:02;4.60;86.90
9116;DHT22;4593;53.652;10.168;2023-05-01T04:05:29;4.60;87.00
9116;DHT22;4593;53.652;10.168;2023-05-01T04:07:55;4.70;86.70
9116;DHT22;4593;53.652;10.168;2023-05-01T04:10:20;4.70;86.60
9116;DHT22;4593;53.652;10.168;2023-05-01T04:12:46;4.70;86.50
9116;DHT22;4593;53.652;10.168;2023-05-01T04:15:12;4.70;86.40
9116;DHT22;4593;53.652;10.168;2023-05-01T04:17:37;4.70;86.80
9116;DHT22;4593;53.652;10.168;2023-05-01T04:20:04;4.80;86.80
9116;DHT22;4593;53.652;10.168;2023-05-01T04:22:31;4.80;86.50
9116;DHT22;4593;53.652;10.168;2023-05-01T04:24:56;4.90;86.60
9116;DHT22;4593;53.652;10.168;2023-05-01T04:27:22;4.90;86.50
9116;DHT22;4593;53.652;10.168;2023-05-01T04:29:48;5.00;86.30
9116;DHT22;4593;53.652;10.168;2023-05-01T04:32:13;5.10;86.10
9116;DHT22;4593;53.652;10.168;2023-05-01T04:34:39;5.20;85.50
9116;DHT22;4593;53.652;10.168;2023-05-01T04:37:05;5.20;85.20
9116;DHT22;4593;53.652;10.168;2023-05-01T04:39:33;5.40;85.00
9116;DHT22;4593;53.652;10.168;2023-05-01T04:42:01;5.50;84.20
9116;DHT22;4593;53.652;10.168;2023-05-01T04:44:27;5.50;83.30
9116;DHT22;4593;53.652;10.168;2023-05-01T04:46:53;5.60;83.20
9116;DHT22;4593;53.652;10.168;2023-05-01T04:49:20;5.60;83.20
9116;DHT22;4593;53.652;10.168;2023-05-01T04:51:46;5.70;82.70
9116;DHT22;4593;53.652;10.168;2023-05-01T04:54:11;5.80;82.50
9116;DHT22;4593;53.652;10.168;2023-05-01T04:56:37;5.90;82.00
9116;DHT22;4593;53.652;10.168;2023-05-01T04:59:02;6.00;81.20
9116;DHT22;4593;53.652;10.168;2023-05-01T05:01:28;6.10;80.90
9116;DHT22;4593;53.652;10.168;2023-05-01T05:03:54;6.20;80.90
9116;DHT22;4593;53.652;10.168;2023-05-01T05:06:19;6.20;80.40
9116;DHT22;4593;53.652;10.168;2023-05-01T05:08:46;6.30;80.10
9116;DHT22;4593;53.652;10.168;2023-05-01T05:11:11;6.40;79.60
9116;DHT22;4593;53.652;10.168;2023-05-01T05:13:37;6.50;78.70
9116;DHT22;4593;53.652;10.168;2023-05-01T05:16:03;6.60;78.80
9116;DHT22;4593;53.652;10.168;2023-05-01T05:18:28;6.60;78.10
9116;DHT22;4593;53.652;10.168;2023-05-01T05:20:54;6.70;77.00
9116;DHT22;4593;53.652;10.168;2023-05-01T05:23:20;6.90;76.80
9116;DHT22;4593;53.652;10.168;2023-05-01T05:25:45;7.00;76.70
9116;DHT22;4593;53.652;10.168;2023-05-01T05:28:11;7.10;76.40
9116;DHT22;4593;53.652;10.168;2023-05-01T05:30:37;7.20;75.20
9116;DHT22;4593;53.652;10.168;2023-05-01T05:33:02;7.30;75.20
9116;DHT22;4593;53.652;10.168;2023-05-01T05:35:28;7.40;75.00
9116;DHT22;4593;53.652;10.168;2023-05-01T05:37:54;7.50;74.70
9116;DHT22;4593;53.652;10.168;2023-05-01T05:40:20;7.60;74.00
9116;DHT22;4593;53.652;10.168;2023-05-01T05:42:46;7.60;73.00
9116;DHT22;4593;53.652;10.168;2023-05-01T05:45:12;7.70;72.60
9116;DHT22;4593;53.652;10.168;2023-05-01T05:47:38;7.70;72.40
9116;DHT22;4593;53.652;10.168;2023-05-01T05:50:05;7.80;71.50
9116;DHT22;4593;53.652;10.168;2023-05-01T05:52:31;7.80;71.40
9116;DHT22;4593;53.652;10.168;2023-05-01T05:54:57;7.90;71.90
9116;DHT22;4593;53.652;10.168;2023-05-01T05:57:23;8.00;71.60
9116;DHT22;4593;53.652;10.168;2023-05-01T05:59:49;8.10;71.70
9116;DHT22;4593;53.652;10.168;2023-05-01T06:02:14;8.10;71.40
9116;DHT22;4593;53.652;10.168;2023-05-01T06:04:40;8.10;70.70
9116;DHT22;4593;53.652;10.168;2023-05-01T06:07:06;8.30;70.50
9116;DHT22;4593;53.652;10.168;2023-05-01T06:09:32;8.40;70.50
9116;DHT22;4593;53.652;10.168;2023-05-01T06:11:58;8.40;71.10
9116;DHT22;4593;53.652;10.168;2023-05-01T06:14:23;8.40;70.90
9116;DHT22;4593;53.652;10.168;2023-05-01T06:16:50;8.50;70.80
9116;DHT22;4593;53.652;10.168;2023-05-01T06:19:16;8.50;70.90
9116;DHT22;4593;53.652;10.168;2023-05-01T06:21:42;8.60;70.70
9116;DHT22;4593;53.652;10.168;2023-05-01T06:24:07;8.60;70.20
9116;DHT22;4593;53.652;10.168;2023-05-01T06:26:33;8.80;70.00
9116;DHT22;4593;53.652;10.168;2023-05-01T06:28:59;8.80;68.90
9116;DHT22;4593;53.652;10.168;2023-05-01T06:31:24;9.00;68.60
9116;DHT22;4593;53.652;10.168;2023-05-01T06:33:51;9.10;67.60
9116;DHT22;4593;53.652;10.168;2023-05-01T06:36:17;9.20;66.70
9116;DHT22;4593;53.652;10.168;2023-05-01T06:38:42;9.30;66.50
9116;DHT22;4593;53.652;10.168;2023-05-01T06:41:13;9.50;65.30
9116;DHT22;4593;53.652;10.168;2023-05-01T06:43:39;9.70;64.60
9116;DHT22;4593;53.652;10.168;2023-05-01T06:46:05;9.80;63.40
9116;DHT22;4593;53.652;10.168;2023-05-01T06:48:30;9.90;64.10
9116;DHT22;4593;53.652;10.168;2023-05-01T06:50:56;10.00;63.40
9116;DHT22;4593;53.652;10.168;2023-05-01T06:53:22;10.10;62.90
9116;DHT22;4593;53.652;10.168;2023-05-01T06:55:48;10.30;62.90
9116;DHT22;4593;53.652;10.168;2023-05-01T06:58:13;10.40;63.00
9116;DHT22;4593;53.652;10.168;2023-05-01T07:00:39;10.70;62.20
9116;DHT22;4593;53.652;10.168;2023-05-01T07:03:05;10.90;61.30
9116;DHT22;4593;53.652;10.168;2023-05-01T07:05:30;11.00;61.00
9116;DHT22;4593;53.652;10.168;2023-05-01T07:07:56;11.20;60.80
9116;DHT22;4593;53.652;10.168;2023-05-01T07:10:22;11.50;61.20
9116;DHT22;4593;53.652;10.168;2023-05-01T07:12:47;11.70;59.50
9116;DHT22;4593;53.652;10.168;2023-05-01T07:15:13;12.00;59.20
9116;DHT22;4593;53.652;10.168;2023-05-01T07:17:40;12.40;58.70
9116;DHT22;4593;53.652;10.168;2023-05-01T07:20:06;12.60;57.20
9116;DHT22;4593;53.652;10.168;2023-05-01T07:22:32;13.00;56.80
9116;DHT22;4593;53.652;10.168;2023-05-01T07:24:58;13.10;54.60
9116;DHT22;4593;53.652;10.168;2023-05-01T07:27:25;13.30;53.30
9116;DHT22;4593;53.652;10.168;2023-05-01T07:29:54;13.40;57.40
9116;DHT22;4593;53.652;10.168;2023-05-01T07:32:21;13.70;55.10
9116;DHT22;4593;53.652;10.168;2023-05-01T07:34:47;13.80;51.10
9116;DHT22;4593;53.652;10.168;2023-05-01T07:37:12;13.70;51.60
9116;DHT22;4593;53.652;10.168;2023-05-01T07:39:38;13.70;52.30
9116;DHT22;4593;53.652;10.168;2023-05-01T07:42:04;13.80;50.40
9116;DHT22;4593;53.652;10.168;2023-05-01T07:44:29;14.10;51.40
9116;DHT22;4593;53.652;10.168;2023-05-01T07:47:04;14.30;50.00
9116;DHT22;4593;53.652;10.168;2023-05-01T07:49:37;14.30;49.20
9116;DHT22;4593;53.652;10.168;2023-05-01T07:52:03;14.60;52.90
9116;DHT22;4593;53.652;10.168;2023-05-01T07:54:31;14.80;48.80
9116;DHT22;4593;53.652;10.168;2023-05-01T07:56:57;14.80;48.90
9116;DHT22;4593;53.652;10.168;2023-05-01T07:59:22;14.90;50.20
9116;DHT22;4593;53.652;10.168;2023-05-01T08:01:48;14.70;47.60
9116;DHT22;4593;53.652;10.168;2023-05-01T08:04:14;14.70;46.60
9116;DHT22;4593;53.652;10.168;2023-05-01T08:06:39;14.80;47.70
9116;DHT22;4593;53.652;10.168;2023-05-01T08:09:05;15.00;51.30
9116;DHT22;4593;53.652;10.168;2023-05-01T08:11:31;15.30;47.70
9116;DHT22;4593;53.652;10.168;2023-05-01T08:13:58;15.30;45.20
9116;DHT22;4593;53.652;10.168;2023-05-01T08:16:23;15.40;47.40
9116;DHT22;4593;53.652;10.168;2023-05-01T08:18:49;15.30;43.80
9116;DHT22;4593;53.652;10.168;2023-05-01T08:21:15;15.30;43.10
9116;DHT22;4593;53.652;10.168;2023-05-01T08:23:40;15.30;42.90
9116;DHT22;4593;53.652;10.168;2023-05-01T08:26:06;15.60;47.40
9116;DHT22;4593;53.652;10.168;2023-05-01T08:28:34;15.80;43.70
9116;DHT22;4593;53.652;10.168;2023-05-01T08:31:00;16.00;42.80
9116;DHT22;4593;53.652;10.168;2023-05-01T08:33:26;16.10;44.00
9116;DHT22;4593;53.652;10.168;2023-05-01T08:35:52;16.10;42.10
9116;DHT22;4593;53.652;10.168;2023-05-01T08:38:18;16.20;41.70
9116;DHT22;4593;53.652;10.168;2023-05-01T08:40:50;16.60;41.10
9116;DHT22;4593;53.652;10.168;2023-05-01T08:43:17;16.80;40.20
9116;DHT22;4593;53.652;10.168;2023-05-01T08:45:44;16.90;39.60
9116;DHT22;4593;53.652;10.168;2023-05-01T08:48:11;16.70;41.00
9116;DHT22;4593;53.652;10.168;2023-05-01T08:50:39;16.70;41.40
9116;DHT22;4593;53.652;10.168;2023-05-01T08:53:05;16.60;39.20
9116;DHT22;4593;53.652;10.168;2023-05-01T08:55:34;16.80;43.40
9116;DHT22;4593;53.652;10.168;2023-05-01T08:58:01;17.10;45.80
9116;DHT22;4593;53.652;10.168;2023-05-01T09:00:28;17.40;42.40
9116;DHT22;4593;53.652;10.168;2023-05-01T09:02:59;17.60;41.90
9116;DHT22;4593;53.652;10.168;2023-05-01T09:05:26;17.60;38.20
9116;DHT22;4593;53.652;10.168;2023-05-01T09:07:52;17.60;40.90
9116;DHT22;4593;53.652;10.168;2023-05-01T09:10:18;17.50;42.10
9116;DHT22;4593;53.652;10.168;2023-05-01T09:12:47;17.60;42.10
9116;DHT22;4593;53.652;10.168;2023-05-01T09:15:14;17.70;41.80
9116;DHT22;4593;53.652;10.168;2023-05-01T09:17:41;17.70;42.30
9116;DHT22;4593;53.652;10.168;2023-05-01T09:20:07;17.60;42.40
9116;DHT22;4593;53.652;10.168;2023-05-01T09:22:33;17.60;39.40
9116;DHT22;4593;53.652;10.168;2023-05-01T09:24:59;17.50;38.90
9116;DHT22;4593;53.652;10.168;2023-05-01T09:27:33;17.60;42.00
9116;DHT22;4593;53.652;10.168;2023-05-01T09:29:59;17.50;41.60
9116;DHT22;4593;53.652;10.168;2023-05-01T09:32:26;17.40;40.70
9116;DHT22;4593;53.652;10.168;2023-05-01T09:35:07;17.50;40.80
9116;DHT22;4593;53.652;10.168;2023-05-01T09:37:34;17.60;42.60
9116;DHT22;4593;53.652;10.168;2023-05-01T09:40:03;17.70;41.80
9116;DHT22;4593;53.652;10.168;2023-05-01T09:42:30;17.60;39.80
9116;DHT22;4593;53.652;10.168;2023-05-01T09:45:00;17.70;39.20
9116;DHT22;4593;53.652;10.168;2023-05-01T09:47:29;17.70;41.40
9116;DHT22;4593;53.652;10.168;2023-05-01T09:49:58;17.60;39.60
9116;DHT22;4593;53.652;10.168;2023-05-01T09:52:28;17.60;44.20
9116;DHT22;4593;53.652;10.168;2023-05-01T09:55:17;17.70;44.10
9116;DHT22;4593;53.652;10.168;2023-05-01T09:57:44;17.90;41.20
9116;DHT22;4593;53.652;10.168;2023-05-01T10:00:11;17.80;39.90
9116;DHT22;4593;53.652;10.168;2023-05-01T10:02:40;17.80;41.60
9116;DHT22;4593;53.652;10.168;2023-05-01T10:05:07;17.60;38.90
9116;DHT22;4593;53.652;10.168;2023-05-01T10:07:33;17.50;38.50
9116;DHT22;4593;53.652;10.168;2023-05-01T10:12:41;17.80;38.60
9116;DHT22;4593;53.652;10.168;2023-05-01T10:15:08;17.90;38.30
9116;DHT22;4593;53.652;10.168;2023-05-01T10:17:35;18.10;38.00
9116;DHT22;4593;53.652;10.168;2023-05-01T10:20:00;18.20;37.10
9116;DHT22;4593;53.652;10.168;2023-05-01T10:22:26;18.30;35.60
9116;DHT22;4593;53.652;10.168;2023-05-01T10:24:53;18.70;38.10
9116;DHT22;4593;53.652;10.168;2023-05-01T10:27:19;19.00;36.20
9116;DHT22;4593;53.652;10.168;2023-05-01T10:29:47;19.20;33.50
9116;DHT22;4593;53.652;10.168;2023-05-01T10:32:16;19.20;35.40
9116;DHT22;4593;53.652;10.168;2023-05-01T10:34:44;19.30;34.70
9116;DHT22;4593;53.652;10.168;2023-05-01T10:37:20;19.50;35.10
9116;DHT22;4593;53.652;10.168;2023-05-01T10:39:47;19.30;32.10
9116;DHT22;4593;53.652;10.168;2023-05-01T10:42:13;19.00;32.80
9116;DHT22;4593;53.652;10.168;2023-05-01T10:44:40;18.80;34.10
9116;DHT22;4593;53.652;10.168;2023-05-01T10:50:12;18.70;34.00
9116;DHT22;4593;53.652;10.168;2023-05-01T10:53:15;18.90;33.10
9116;DHT22;4593;53.652;10.168;2023-05-01T10:55:42;18.70;32.10
9116;DHT22;4593;53.652;10.168;2023-05-01T10:58:09;18.80;32.60
9116;DHT22;4593;53.652;10.168;2023-05-01T11:00:35;19.00;34.00
9116;DHT22;4593;53.652;10.168;2023-05-01T11:08:28;19.10;31.50
9116;DHT22;4593;53.652;10.168;2023-05-01T11:10:55;19.10;32.90
9116;DHT22;4593;53.652;10.168;2023-05-01T11:19:05;19.50;30.80
9116;DHT22;4593;53.652;10.168;2023-05-01T11:21:33;19.60;34.90
9116;DHT22;4593;53.652;10.168;2023-05-01T11:23:59;19.60;31.70
9116;DHT22;4593;53.652;10.168;2023-05-01T11:26:27;19.50;30.40
9116;DHT22;4593;53.652;10.168;2023-05-01T11:28:54;19.60;31.20
9116;DHT22;4593;53.652;10.168;2023-05-01T11:31:21;19.90;32.40
9116;DHT22;4593;53.652;10.168;2023-05-01T11:33:47;19.90;32.60
9116;DHT22;4593;53.652;10.168;2023-05-01T11:36:13;19.80;31.80
9116;DHT22;4593;53.652;10.168;2023-05-01T11:38:49;20.00;31.40
9116;DHT22;4593;53.652;10.168;2023-05-01T11:41:19;19.90;33.70
9116;DHT22;4593;53.652;10.168;2023-05-01T11:43:55;19.60;30.80
9116;DHT22;4593;53.652;10.168;2023-05-01T11:46:28;19.50;32.80
9116;DHT22;4593;53.652;10.168;2023-05-01T11:49:00;19.60;31.80
9116;DHT22;4593;53.652;10.168;2023-05-01T11:51:27;19.70;33.00
9116;DHT22;4593;53.652;10.168;2023-05-01T11:54:11;20.00;33.50
9116;DHT22;4593;53.652;10.168;2023-05-01T11:56:38;20.20;34.10
9116;DHT22;4593;53.652;10.168;2023-05-01T11:59:12;20.30;33.50
9116;DHT22;4593;53.652;10.168;2023-05-01T12:01:39;20.30;32.70
9116;DHT22;4593;53.652;10.168;2023-05-01T12:04:06;20.20;33.10
9116;DHT22;4593;53.652;10.168;2023-05-01T12:06:40;20.10;33.00
9116;DHT22;4593;53.652;10.168;2023-05-01T12:09:23;20.20;34.80
9116;DHT22;4593;53.652;10.168;2023-05-01T12:11:52;20.30;34.10
9116;DHT22;4593;53.652;10.168;2023-05-01T12:14:19;20.30;32.50
9116;DHT22;4593;53.652;10.168;2023-05-01T12:16:46;20.30;31.30
9116;DHT22;4593;53.652;10.168;2023-05-01T12:19:13;20.00;32.00
9116;DHT22;4593;53.652;10.168;2023-05-01T12:21:40;19.80;31.70
9116;DHT22;4593;53.652;10.168;2023-05-01T12:24:13;19.80;35.10
9116;DHT22;4593;53.652;10.168;2023-05-01T12:26:40;19.80;33.40
9116;DHT22;4593;53.652;10.168;2023-05-01T12:29:07;19.60;34.10
9116;DHT22;4593;53.652;10.168;2023-05-01T12:31:36;19.40;33.40
9116;DHT22;4593;53.652;10.168;2023-05-01T12:34:09;19.40;34.30
9116;DHT22;4593;53.652;10.168;2023-05-01T12:36:36;19.50;33.90
9116;DHT22;4593;53.652;10.168;2023-05-01T12:39:06;19.50;34.00
9116;DHT22;4593;53.652;10.168;2023-05-01T12:41:40;19.50;35.80
9116;DHT22;4593;53.652;10.168;2023-05-01T12:44:18;19.70;33.70
9116;DHT22;4593;53.652;10.168;2023-05-01T12:46:51;19.80;35.00
9116;DHT22;4593;53.652;10.168;2023-05-01T12:49:18;19.90;32.40
9116;DHT22;4593;53.652;10.168;2023-05-01T12:51:47;19.80;32.90
9116;DHT22;4593;53.652;10.168;2023-05-01T12:54:39;19.90;33.10
9116;DHT22;4593;53.652;10.168;2023-05-01T12:57:09;19.90;31.30
9116;DHT22;4593;53.652;10.168;2023-05-01T12:59:39;19.90;32.90
9116;DHT22;4593;53.652;10.168;2023-05-01T13:02:08;19.90;32.10
9116;DHT22;4593;53.652;10.168;2023-05-01T13:04:37;19.80;31.60
9116;DHT22;4593;53.652;10.168;2023-05-01T13:07:14;19.70;32.60
9116;DHT22;4593;53.652;10.168;2023-05-01T13:09:54;19.70;31.40
9116;DHT22;4593;53.652;10.168;2023-05-01T13:12:20;19.90;33.10
9116;DHT22;4593;53.652;10.168;2023-05-01T13:14:47;20.10;34.40
9116;DHT22;4593;53.652;10.168;2023-05-01T13:17:24;20.20;33.70
9116;DHT22;4593;53.652;10.168;2023-05-01T13:20:01;20.20;32.00
9116;DHT22;4593;53.652;10.168;2023-05-01T13:22:37;19.60;31.40
9116;DHT22;4593;53.652;10.168;2023-05-01T13:25:13;19.50;32.00
9116;DHT22;4593;53.652;10.168;2023-05-01T13:27:40;19.50;32.60
9116;DHT22;4593;53.652;10.168;2023-05-01T13:30:07;19.40;32.10
9116;DHT22;4593;53.652;10.168;2023-05-01T13:32:32;19.80;33.70
9116;DHT22;4593;53.652;10.168;2023-05-01T13:35:01;20.30;33.00
9116;DHT22;4593;53.652;10.168;2023-05-01T13:37:27;20.60;34.10
9116;DHT22;4593;53.652;10.168;2023-05-01T13:39:55;20.90;33.40
9116;DHT22;4593;53.652;10.168;2023-05-01T13:42:24;21.10;31.50
9116;DHT22;4593;53.652;10.168;2023-05-01T13:44:54;21.10;33.30
9116;DHT22;4593;53.652;10.168;2023-05-01T13:47:23;21.30;33.30
9116;DHT22;4593;53.652;10.168;2023-05-01T13:49:52;21.40;33.40
9116;DHT22;4593;53.652;10.168;2023-05-01T13:52:19;21.30;31.70
9116;DHT22;4593;53.652;10.168;2023-05-01T13:54:46;21.40;32.60
9116;DHT22;4593;53.652;10.168;2023-05-01T13:57:12;21.40;30.80
9116;DHT22;4593;53.652;10.168;2023-05-01T13:59:40;21.30;31.50
9116;DHT22;4593;53.652;10.168;2023-05-01T14:02:24;21.20;30.80
9116;DHT22;4593;53.652;10.168;2023-05-01T14:04:51;20.90;31.50
9116;DHT22;4593;53.652;10.168;2023-05-01T14:07:19;20.30;31.20
9116;DHT22;4593;53.652;10.168;2023-05-01T14:09:58;20.10;32.50
9116;DHT22;4593;53.652;10.168;2023-05-01T14:12:28;20.30;33.70
9116;DHT22;4593;53.652;10.168;2023-05-01T14:14:54;20.40;32.30
9116;DHT22;4593;53.652;10.168;2023-05-01T14:17:29;20.50;32.70
9116;DHT22;4593;53.652;10.168;2023-05-01T14:19:56;20.70;32.40
9116;DHT22;4593;53.652;10.168;2023-05-01T14:22:21;20.90;31.30
9116;DHT22;4593;53.652;10.168;2023-05-01T14:24:47;20.80;31.20
9116;DHT22;4593;53.652;10.168;2023-05-01T14:27:13;20.80;32.00
9116;DHT22;4593;53.652;10.168;2023-05-01T14:29:41;21.10;32.40
9116;DHT22;4593;53.652;10.168;2023-05-01T14:32:09;21.40;31.50
9116;DHT22;4593;53.652;10.168;2023-05-01T14:34:35;21.60;30.60
9116;DHT22;4593;53.652;10.168;2023-05-01T14:37:03;21.70;32.90
9116;DHT22;4593;53.652;10.168;2023-05-01T14:39:31;21.80;33.40
9116;DHT22;4593;53.652;10.168;2023-05-01T14:41:58;21.70;31.80
9116;DHT22;4593;53.652;10.168;2023-05-01T14:44:26;21.70;31.00
9116;DHT22;4593;53.652;10.168;2023-05-01T14:46:53;21.50;31.40
9116;DHT22;4593;53.652;10.168;2023-05-01T14:49:21;21.60;32.50
9116;DHT22;4593;53.652;10.168;2023-05-01T14:51:47;21.20;31.90
9116;DHT22;4593;53.652;10.168;2023-05-01T14:54:13;20.80;33.10
9116;DHT22;4593;53.652;10.168;2023-05-01T14:56:41;20.80;35.60
9116;DHT22;4593;53.652;10.168;2023-05-01T14:59:07;21.10;35.20
9116;DHT22;4593;53.652;10.168;2023-05-01T15:01:32;21.20;33.90
9116;DHT22;4593;53.652;10.168;2023-05-01T15:03:58;21.40;34.00
9116;DHT22;4593;53.652;10.168;2023-05-01T15:06:24;21.70;33.60
9116;DHT22;4593;53.652;10.168;2023-05-01T15:08:50;21.50;32.60
9116;DHT22;4593;53.652;10.168;2023-05-01T15:11:16;21.30;33.00
9116;DHT22;4593;53.652;10.168;2023-05-01T15:13:45;21.10;33.50
9116;DHT22;4593;53.652;10.168;2023-05-01T15:16:13;21.20;34.20
9116;DHT22;4593;53.652;10.168;2023-05-01T15:18:39;20.90;34.30
9116;DHT22;4593;53.652;10.168;2023-05-01T15:21:05;20.40;34.90
9116;DHT22;4593;53.652;10.168;2023-05-01T15:23:31;20.30;35.10
9116;DHT22;4593;53.652;10.168;2023-05-01T15:25:57;20.40;37.20
9116;DHT22;4593;53.652;10.168;2023-05-01T15:28:23;20.60;36.70
9116;DHT22;4593;53.652;10.168;2023-05-01T15:30:51;20.70;35.70
9116;DHT22;4593;53.652;10.168;2023-05-01T15:33:17;20.60;35.40
9116;DHT22;4593;53.652;10.168;2023-05-01T15:35:44;20.60;36.10
9116;DHT22;4593;53.652;10.168;2023-05-01T15:38:17;20.70;36.70
9116;DHT22;4593;53.652;10.168;2023-05-01T15:40:44;20.60;36.10
9116;DHT22;4593;53.652;10.168;2023-05-01T15:43:10;20.60;36.40
9116;DHT22;4593;53.652;10.168;2023-05-01T15:45:36;20.40;36.20
9116;DHT22;4593;53.652;10.168;2023-05-01T15:48:06;20.50;36.80
9116;DHT22;4593;53.652;10.168;2023-05-01T15:50:32;20.50;36.80
9116;DHT22;4593;53.652;10.168;2023-05-01T15:52:58;20.20;37.10
9116;DHT22;4593;53.652;10.168;2023-05-01T15:55:23;20.20;37.60
9116;DHT22;4593;53.652;10.168;2023-05-01T15:57:49;20.10;37.70
9116;DHT22;4593;53.652;10.168;2023-05-01T16:00:15;20.10;37.90
9116;DHT22;4593;53.652;10.168;2023-05-01T16:02:41;19.80;38.80
9116;DHT22;4593;53.652;10.168;2023-05-01T16:05:09;19.30;39.60
9116;DHT22;4593;53.652;10.168;2023-05-01T16:07:35;19.30;40.40
9116;DHT22;4593;53.652;10.168;2023-05-01T16:10:02;19.10;41.10
9116;DHT22;4593;53.652;10.168;2023-05-01T16:12:28;19.00;41.50
9116;DHT22;4593;53.652;10.168;2023-05-01T16:14:54;18.90;41.30
9116;DHT22;4593;53.652;10.168;2023-05-01T16:17:20;18.90;42.00
9116;DHT22;4593;53.652;10.168;2023-05-01T16:19:46;19.00;41.70
9116;DHT22;4593;53.652;10.168;2023-05-01T16:22:15;18.90;42.00
9116;DHT22;4593;53.652;10.168;2023-05-01T16:24:41;19.10;42.50